Elkhart, IN

2:25 PM EST on January 26, 2015 (GMT -0500)
Three Rivers Municipal-Haines | Change Station
CLOSE
Current Station
Airport
Location: Three Rivers,
Elevation: 823 ft
Nearby Weather Stations

Elev 823 ft 41.96 °N, 85.59 °W | Updated 11 minutes ago

Mostly Cloudy
Mostly Cloudy
22 °F
Feels Like 22 °F
N
0
Wind Variable Wind from North

Today
High -- | Low -- °F
--% Chance of Precip.
Yesterday
High -- | Low -- °F
Precip. -- in
8:01 AM 5:51 PM
Waxing Crescent, 46% visible
Pressure 29.90 in
Visibility 10.0 miles
Clouds Clear
Dew Point 4 °F
Humidity 46%
Rainfall 0.00 in
Snow Depth Not available.
UV 2 out of 12
Pollen .10 out of 12
Air Quality Not available.
Flu Activity Not available.
METAR KHAI 261914Z AUTO 00000KT 10SM CLR M05/M15 A2990 RMK AO2 T10531154

More Conditions Fewer Conditions

Pressure 29.90 in
Visibility 10.0 miles
Clouds Clear
Dew Point 4 °F
Humidity 46%
Rainfall 0.00 in
Snow Depth Not available.
UV 2 out of 12
Pollen .10 out of 12
Air Quality Not available.
Flu Activity Not available.
METAR KHAI 261914Z AUTO 00000KT 10SM CLR M05/M15 A2990 RMK AO2 T10531154

More Conditions Fewer Conditions

10-Day Weather Forecast

Almanac

Astronomy

Jan. 26, 2015 Rise Set
Actual Time
Civil Twilight
Nautical Twilight
Astronomical Twilight
Moon
Length of Visible Light
Length of Day
Tomorrow will be .
, % of the Moon is Illuminated

Today's Extremes

State Highs State Lows

Community

WunderPhotos

Upload Photos

1,790,337 photos uploaded!

WunderBlogs® & News

Nearby

Air Quality

  Air Quality AQ Index Pollutant
Not available.

Snow Depth

Station Depth Elevation

Earthquake Activity

City Distance Mag. Time & Date
Minimum magnitude displayed is 2.5.

Coastal Water Temperatures

Place Temperature

Nearby Weather Stations